createdAt,value
2019-05-20T00:00:25.813Z,77.95
2019-05-20T00:03:30.004Z,78.07
2019-05-20T00:06:33.937Z,78.22
2019-05-20T00:09:38.768Z,78.21
2019-05-20T00:12:42.887Z,78.27
2019-05-20T00:15:47.005Z,78.25
2019-05-20T00:18:51.287Z,78.28
2019-05-20T00:21:55.844Z,78.35
2019-05-20T00:25:00.279Z,78.34
2019-05-20T00:28:04.499Z,78.32
2019-05-20T00:31:08.824Z,78.31
2019-05-20T00:34:13.268Z,78.35
2019-05-20T00:37:17.562Z,78.46
2019-05-20T00:40:22.321Z,78.43
2019-05-20T00:43:27.320Z,78.46
2019-05-20T00:46:31.385Z,78.43
2019-05-20T00:49:35.290Z,78.37
2019-05-20T00:52:39.691Z,78.42
2019-05-20T00:55:43.689Z,78.50
2019-05-20T00:58:48.238Z,78.54
2019-05-20T01:01:53.303Z,78.57
2019-05-20T01:04:57.565Z,78.62
2019-05-20T01:08:01.507Z,78.64
2019-05-20T01:11:05.674Z,78.75
2019-05-20T01:14:10.261Z,78.79
2019-05-20T01:17:14.347Z,78.92
2019-05-20T01:20:18.819Z,78.91
2019-05-20T01:23:22.983Z,78.95
2019-05-20T01:26:27.427Z,79.04
2019-05-20T01:29:31.285Z,78.93
2019-05-20T01:32:35.936Z,78.99
2019-05-20T01:35:40.098Z,79.09
2019-05-20T01:38:44.215Z,79.10
2019-05-20T01:41:49.194Z,79.06
2019-05-20T01:44:53.488Z,79.02
2019-05-20T01:47:58.379Z,78.91
2019-05-20T01:51:02.610Z,78.83
2019-05-20T01:54:07.174Z,78.74
2019-05-20T01:57:11.409Z,78.87
2019-05-20T02:00:16.192Z,78.69
2019-05-20T02:03:31.251Z,78.74
2019-05-20T02:06:27.131Z,78.70
2019-05-20T02:09:31.249Z,78.77
2019-05-20T02:12:35.875Z,78.78
2019-05-20T02:15:55.453Z,78.79
2019-05-20T02:19:00.083Z,78.67
2019-05-20T02:22:04.101Z,78.52
2019-05-20T02:25:08.111Z,78.47
2019-05-20T02:28:12.556Z,78.37
2019-05-20T02:31:16.593Z,78.21
2019-05-20T02:34:20.511Z,78.07
2019-05-20T02:37:25.102Z,78.09
2019-05-20T02:40:29.328Z,78.06
2019-05-20T02:43:33.533Z,77.94
2019-05-20T02:46:37.532Z,77.87
2019-05-20T02:49:41.998Z,77.87
2019-05-20T02:52:46.608Z,77.89
2019-05-20T02:55:50.859Z,77.84
2019-05-20T02:58:54.971Z,77.96
2019-05-20T03:01:59.169Z,78.01
2019-05-20T03:05:03.029Z,78.01
2019-05-20T03:08:07.391Z,77.95
2019-05-20T03:11:11.625Z,78.00
2019-05-20T03:14:15.948Z,78.01
2019-05-20T03:17:20.486Z,78.05
2019-05-20T03:20:24.492Z,78.00
2019-05-20T03:23:28.501Z,78.06
2019-05-20T03:26:32.428Z,78.10
2019-05-20T03:29:36.890Z,78.14
2019-05-20T03:32:41.645Z,78.20
2019-05-20T03:35:45.809Z,78.21
2019-05-20T03:38:50.230Z,78.16
2019-05-20T03:41:54.974Z,78.11
2019-05-20T03:44:59.315Z,78.05
2019-05-20T03:48:03.909Z,78.01
2019-05-20T03:51:08.850Z,77.95
2019-05-20T03:54:13.276Z,77.89
2019-05-20T03:57:17.203Z,78.02
2019-05-20T04:00:37.661Z,78.04
2019-05-20T04:03:42.144Z,77.90
2019-05-20T04:06:46.757Z,77.77
2019-05-20T04:09:50.867Z,77.71
2019-05-20T04:12:55.304Z,77.71
2019-05-20T04:16:00.548Z,77.57
2019-05-20T04:19:04.795Z,77.52
2019-05-20T04:22:08.963Z,77.48
2019-05-20T04:25:13.151Z,77.38
2019-05-20T04:28:17.628Z,77.31
2019-05-20T04:31:21.631Z,77.21
2019-05-20T04:34:25.717Z,77.09
2019-05-20T04:37:30.140Z,77.08
2019-05-20T04:40:34.141Z,76.96
2019-05-20T04:43:38.615Z,76.91
2019-05-20T04:46:43.613Z,76.86
2019-05-20T04:49:48.199Z,76.68
2019-05-20T04:52:52.864Z,76.59
2019-05-20T04:55:57.685Z,76.48
2019-05-20T04:59:01.919Z,76.22
2019-05-20T05:02:06.238Z,76.04
2019-05-20T05:05:10.615Z,75.94
2019-05-20T05:08:14.717Z,75.87
2019-05-20T05:11:19.273Z,75.72
2019-05-20T05:14:23.205Z,75.50
2019-05-20T05:17:27.254Z,75.32
2019-05-20T05:20:31.979Z,75.06
2019-05-20T05:23:36.550Z,74.80
2019-05-20T05:26:40.803Z,74.63
2019-05-20T05:29:45.058Z,74.49
2019-05-20T05:32:49.293Z,74.44
2019-05-20T05:35:53.963Z,74.42
2019-05-20T05:38:58.624Z,74.07
2019-05-20T05:42:03.433Z,73.84
2019-05-20T05:45:08.473Z,73.71
2019-05-20T05:48:12.327Z,73.59
2019-05-20T05:51:16.587Z,73.55
2019-05-20T05:54:20.978Z,73.36
2019-05-20T05:57:25.776Z,73.26
2019-05-20T06:00:29.955Z,73.19
2019-05-20T06:03:34.180Z,73.02
2019-05-20T06:06:38.442Z,72.72
2019-05-20T06:09:42.363Z,72.40
2019-05-20T06:12:46.841Z,72.13
2019-05-20T06:15:50.768Z,71.88
2019-05-20T06:18:55.113Z,71.77
2019-05-20T06:21:59.033Z,71.69
2019-05-20T06:25:03.680Z,71.58
2019-05-20T06:28:07.664Z,71.47
2019-05-20T06:31:11.687Z,71.37
2019-05-20T06:34:15.663Z,71.44
2019-05-20T06:37:21.590Z,71.53
2019-05-20T06:40:25.605Z,71.54
2019-05-20T06:43:30.119Z,71.59
2019-05-20T06:46:34.352Z,71.60
2019-05-20T06:49:38.813Z,71.86
2019-05-20T06:52:42.839Z,71.97
2019-05-20T06:55:47.173Z,72.18
2019-05-20T06:58:51.277Z,72.05
2019-05-20T07:01:56.112Z,72.01
2019-05-20T07:05:00.637Z,71.87
2019-05-20T07:08:05.057Z,71.62
2019-05-20T07:11:09.690Z,71.35
2019-05-20T07:14:14.444Z,70.91
2019-05-20T07:17:18.753Z,70.25
2019-05-20T07:20:23.066Z,69.67
2019-05-20T07:23:27.388Z,68.35
2019-05-20T07:26:31.670Z,65.81
2019-05-20T07:29:36.167Z,64.40
2019-05-20T07:32:40.385Z,64.55
2019-05-20T07:35:44.782Z,64.71
2019-05-20T07:38:49.053Z,64.52
2019-05-20T07:41:53.317Z,64.16
2019-05-20T07:44:57.775Z,63.69
2019-05-20T07:48:02.423Z,63.90
2019-05-20T07:51:07.678Z,64.33
2019-05-20T07:54:13.238Z,64.23
2019-05-20T07:57:20.642Z,63.67
2019-05-20T08:00:24.694Z,63.21
2019-05-20T08:03:28.725Z,62.83
2019-05-20T08:06:32.820Z,62.31
2019-05-20T08:09:44.653Z,61.96
2019-05-20T08:12:42.818Z,61.99
2019-05-20T08:15:46.729Z,62.19
2019-05-20T08:18:51.045Z,61.77
2019-05-20T08:21:55.285Z,61.63
2019-05-20T08:24:59.276Z,61.57
2019-05-20T08:28:03.544Z,61.30
2019-05-20T08:31:07.775Z,60.99
2019-05-20T08:34:12.032Z,60.74
2019-05-20T08:37:16.559Z,60.64
2019-05-20T08:40:20.692Z,60.67
2019-05-20T08:43:25.000Z,61.05
2019-05-20T08:46:29.929Z,61.07
2019-05-20T08:49:34.688Z,60.97
2019-05-20T08:52:39.358Z,60.70
2019-05-20T08:55:43.592Z,60.93
2019-05-20T08:58:47.739Z,61.09
2019-05-20T09:01:52.060Z,60.82
2019-05-20T09:04:56.594Z,60.50
2019-05-20T09:08:03.427Z,60.06
2019-05-20T09:11:06.343Z,59.83
2019-05-20T09:14:10.713Z,59.63
2019-05-20T09:17:15.001Z,59.46
2019-05-20T09:20:19.746Z,58.93
2019-05-20T09:23:24.090Z,58.48
2019-05-20T09:26:28.488Z,58.56
2019-05-20T09:29:32.656Z,58.34
2019-05-20T09:32:37.242Z,58.38
2019-05-20T09:35:42.009Z,58.67
2019-05-20T09:38:46.286Z,58.77
2019-05-20T09:41:50.525Z,58.95
2019-05-20T09:44:55.264Z,59.19
2019-05-20T09:47:59.485Z,59.58
2019-05-20T09:51:03.743Z,59.89
2019-05-20T09:54:08.008Z,60.68
2019-05-20T09:57:12.434Z,61.46
2019-05-20T10:00:16.927Z,62.77
2019-05-20T10:03:21.488Z,64.64
2019-05-20T10:06:26.059Z,64.64
2019-05-20T10:09:30.338Z,64.99
2019-05-20T10:12:45.262Z,64.99
2019-05-20T10:15:39.910Z,64.94
2019-05-20T10:18:43.913Z,64.94
2019-05-20T10:21:47.900Z,64.66
2019-05-20T10:24:51.831Z,64.77
2019-05-20T10:27:57.759Z,64.89
2019-05-20T10:31:02.030Z,65.25
2019-05-20T10:34:06.140Z,65.51
2019-05-20T10:37:10.142Z,65.96
2019-05-20T10:40:14.693Z,66.21
2019-05-20T10:43:19.236Z,66.14
2019-05-20T10:46:23.340Z,66.25
2019-05-20T10:49:27.447Z,66.26
2019-05-20T10:52:31.605Z,66.61
2019-05-20T10:55:36.018Z,66.87
2019-05-20T10:58:40.111Z,67.81
2019-05-20T11:01:44.389Z,69.30
2019-05-20T11:04:48.496Z,69.30
2019-05-20T11:07:53.328Z,69.85
2019-05-20T11:10:57.160Z,69.85
2019-05-20T11:14:01.309Z,69.99
2019-05-20T11:17:05.234Z,69.96
2019-05-20T11:20:09.722Z,69.80
2019-05-20T11:23:14.226Z,69.91
2019-05-20T11:26:18.959Z,70.22
2019-05-20T11:29:23.156Z,70.22
2019-05-20T11:32:27.181Z,70.61
2019-05-20T11:35:31.128Z,70.31
2019-05-20T11:38:35.129Z,70.24
2019-05-20T11:41:52.928Z,70.24
2019-05-20T11:44:45.075Z,69.34
2019-05-20T11:47:49.274Z,69.34
2019-05-20T11:50:53.283Z,69.06
2019-05-20T11:53:57.137Z,68.58
2019-05-20T11:57:01.555Z,68.00
2019-05-20T12:00:06.185Z,68.00
2019-05-20T12:03:10.845Z,67.69
2019-05-20T12:06:14.804Z,67.53
2019-05-20T12:09:18.734Z,67.20
2019-05-20T12:12:23.361Z,66.69
2019-05-20T12:15:27.624Z,66.14
2019-05-20T12:18:32.335Z,65.68
2019-05-20T12:21:36.665Z,66.33
2019-05-20T12:24:41.363Z,65.48
2019-05-20T12:27:45.842Z,64.77
2019-05-20T12:30:50.104Z,63.85
2019-05-20T12:33:54.049Z,62.27
2019-05-20T12:36:58.019Z,61.38
2019-05-20T12:40:07.605Z,60.15
2019-05-20T12:43:08.225Z,59.58
2019-05-20T12:46:12.157Z,58.79
2019-05-20T12:49:16.313Z,57.77
2019-05-20T12:52:20.622Z,57.92
2019-05-20T12:55:24.655Z,57.35
2019-05-20T12:58:28.986Z,56.90
2019-05-20T13:01:33.082Z,56.75
2019-05-20T13:04:37.496Z,56.74
2019-05-20T13:07:41.797Z,56.68
2019-05-20T13:10:46.507Z,57.07
2019-05-20T13:13:50.793Z,56.86
2019-05-20T13:16:54.645Z,56.90
2019-05-20T13:19:58.856Z,57.43
2019-05-20T13:23:06.153Z,58.10
2019-05-20T13:26:09.869Z,58.60
2019-05-20T13:29:14.312Z,58.96
2019-05-20T13:32:18.508Z,58.98
2019-05-20T13:35:22.730Z,58.80
2019-05-20T13:38:26.659Z,58.57
2019-05-20T13:41:31.577Z,57.96
2019-05-20T13:44:36.129Z,57.36
2019-05-20T13:47:40.862Z,57.11
2019-05-20T13:50:45.116Z,56.61
2019-05-20T13:53:49.461Z,56.66
2019-05-20T13:56:53.868Z,56.63
2019-05-20T13:59:58.026Z,56.70
2019-05-20T14:03:02.011Z,57.12
2019-05-20T14:06:06.121Z,57.35
2019-05-20T14:09:10.685Z,57.55
2019-05-20T14:12:14.957Z,57.96
2019-05-20T14:15:19.353Z,58.67
2019-05-20T14:18:23.875Z,59.37
2019-05-20T14:21:28.188Z,60.11
2019-05-20T14:24:32.317Z,60.98
2019-05-20T14:27:36.319Z,61.90
2019-05-20T14:30:40.629Z,63.65
2019-05-20T14:33:45.146Z,65.34
2019-05-20T14:36:52.692Z,67.69
2019-05-20T14:39:54.934Z,69.17
2019-05-20T14:42:58.992Z,70.50
2019-05-20T14:46:03.697Z,71.69
2019-05-20T14:49:08.213Z,71.69
2019-05-20T14:52:12.434Z,72.42
2019-05-20T14:55:16.463Z,73.02
2019-05-20T14:58:20.479Z,74.48
2019-05-20T15:01:24.950Z,76.00
2019-05-20T15:04:29.087Z,75.61
2019-05-20T15:07:33.041Z,76.38
2019-05-20T15:10:37.293Z,76.30
2019-05-20T15:13:41.998Z,76.42
2019-05-20T15:16:46.262Z,76.39
2019-05-20T15:19:50.911Z,76.26
2019-05-20T15:22:55.399Z,75.86
2019-05-20T15:25:59.680Z,75.92
2019-05-20T15:29:04.561Z,75.83
2019-05-20T15:32:09.310Z,75.72
2019-05-20T15:35:13.443Z,75.95
2019-05-20T15:38:18.813Z,76.09
2019-05-20T15:41:23.205Z,76.02
2019-05-20T15:44:27.665Z,76.49
2019-05-20T15:47:32.493Z,76.49
2019-05-20T15:50:36.739Z,76.46
2019-05-20T15:53:41.038Z,76.37
2019-05-20T15:56:45.703Z,77.12
2019-05-20T15:59:49.894Z,77.27
2019-05-20T16:02:53.916Z,77.11
2019-05-20T16:06:00.018Z,77.25
2019-05-20T16:09:05.198Z,77.38
2019-05-20T16:12:09.695Z,77.09
2019-05-20T16:15:14.107Z,76.88
2019-05-20T16:18:18.642Z,76.65
2019-05-20T16:21:23.339Z,76.40
2019-05-20T16:24:27.289Z,76.26
2019-05-20T16:27:32.830Z,76.14
2019-05-20T16:30:37.028Z,76.01
2019-05-20T16:33:41.423Z,76.00
2019-05-20T16:36:45.757Z,76.11
2019-05-20T16:39:50.581Z,76.05
2019-05-20T16:42:54.846Z,76.26
2019-05-20T16:45:58.863Z,76.60
2019-05-20T16:49:03.113Z,77.15
2019-05-20T16:52:07.106Z,77.11
2019-05-20T16:55:11.355Z,77.17
2019-05-20T16:58:15.600Z,77.39
2019-05-20T17:01:19.802Z,77.46
2019-05-20T17:04:23.929Z,77.57
2019-05-20T17:07:28.024Z,77.78
2019-05-20T17:10:31.903Z,77.67
2019-05-20T17:13:36.170Z,77.86
2019-05-20T17:16:40.326Z,77.89
2019-05-20T17:19:44.726Z,77.94
2019-05-20T17:22:49.049Z,78.02
2019-05-20T17:25:53.520Z,78.01
2019-05-20T17:28:58.100Z,78.16
2019-05-20T17:32:02.333Z,78.33
2019-05-20T17:35:06.667Z,78.55
2019-05-20T17:38:10.997Z,78.71
2019-05-20T17:41:15.208Z,79.00
2019-05-20T17:44:20.032Z,79.00
2019-05-20T17:47:25.025Z,79.14
2019-05-20T17:50:29.034Z,79.15
2019-05-20T17:53:33.935Z,78.99
2019-05-20T17:56:37.997Z,78.84
2019-05-20T17:59:42.369Z,78.88
2019-05-20T18:02:47.029Z,78.89
2019-05-20T18:05:51.338Z,78.64
2019-05-20T18:08:57.002Z,78.38
2019-05-20T18:12:01.293Z,78.30
2019-05-20T18:15:05.862Z,78.33
2019-05-20T18:18:10.720Z,78.30
2019-05-20T18:21:15.285Z,78.16
2019-05-20T18:24:19.571Z,78.35
2019-05-20T18:27:23.677Z,78.18
2019-05-20T18:30:28.067Z,78.06
2019-05-20T18:33:32.592Z,78.08
2019-05-20T18:36:36.510Z,78.07
2019-05-20T18:39:40.697Z,77.83
2019-05-20T18:42:45.341Z,77.72
2019-05-20T18:45:50.185Z,78.61
2019-05-20T18:48:54.399Z,78.60
2019-05-20T18:51:59.028Z,78.54
2019-05-20T18:55:03.367Z,78.52
2019-05-20T18:58:07.566Z,78.44
2019-05-20T19:01:11.580Z,78.40
2019-05-20T19:04:15.607Z,78.54
2019-05-20T19:07:19.959Z,78.38
2019-05-20T19:10:24.832Z,78.28
2019-05-20T19:13:29.131Z,78.20
2019-05-20T19:16:33.552Z,78.27
2019-05-20T19:19:37.677Z,78.04
2019-05-20T19:22:42.022Z,78.13
2019-05-20T19:25:46.399Z,78.26
2019-05-20T19:28:50.693Z,78.22
2019-05-20T19:32:01.851Z,78.48
2019-05-20T19:35:01.411Z,78.63
2019-05-20T19:38:05.416Z,78.76
2019-05-20T19:41:10.317Z,78.79
2019-05-20T19:44:14.354Z,78.68
2019-05-20T19:47:18.351Z,78.67
2019-05-20T19:50:22.701Z,78.77
2019-05-20T19:53:26.994Z,78.71
2019-05-20T19:56:31.182Z,78.53
2019-05-20T19:59:35.190Z,78.45
2019-05-20T20:02:39.420Z,78.29
2019-05-20T20:05:43.361Z,78.23
2019-05-20T20:08:47.619Z,78.31
2019-05-20T20:11:51.629Z,78.21
2019-05-20T20:14:55.496Z,78.07
2019-05-20T20:18:00.210Z,78.19
2019-05-20T20:21:04.628Z,78.14
2019-05-20T20:24:09.488Z,78.21
2019-05-20T20:27:13.535Z,78.08
2019-05-20T20:30:18.085Z,78.13
2019-05-20T20:33:21.941Z,78.28
2019-05-20T20:36:25.885Z,78.59
2019-05-20T20:39:29.881Z,78.59
2019-05-20T20:42:34.086Z,78.62
2019-05-20T20:45:38.349Z,78.72
2019-05-20T20:48:42.489Z,78.76
2019-05-20T20:51:46.426Z,78.70
2019-05-20T20:54:51.262Z,78.84
2019-05-20T20:57:56.043Z,78.91
2019-05-20T21:01:01.008Z,78.70
2019-05-20T21:04:05.213Z,78.82
2019-05-20T21:07:09.836Z,78.80
2019-05-20T21:10:14.155Z,78.84
2019-05-20T21:13:19.254Z,78.71
2019-05-20T21:16:23.181Z,78.65
2019-05-20T21:19:28.396Z,78.71
2019-05-20T21:22:32.269Z,78.79
2019-05-20T21:25:37.360Z,78.64
2019-05-20T21:28:41.582Z,78.71
2019-05-20T21:31:45.814Z,78.53
2019-05-20T21:34:50.346Z,78.45
2019-05-20T21:37:54.929Z,78.39
2019-05-20T21:40:59.070Z,78.41
2019-05-20T21:44:03.374Z,78.50
2019-05-20T21:47:08.358Z,78.55
2019-05-20T21:50:30.480Z,78.49
2019-05-20T21:53:34.817Z,78.89
2019-05-20T21:56:39.088Z,79.54
2019-05-20T21:59:43.196Z,79.70
2019-05-20T22:02:47.713Z,79.88
2019-05-20T22:05:52.459Z,79.85
2019-05-20T22:08:56.788Z,79.88
2019-05-20T22:12:01.462Z,79.98
2019-05-20T22:15:05.665Z,79.96
2019-05-20T22:18:09.835Z,79.71
2019-05-20T22:21:15.703Z,80.07
2019-05-20T22:24:19.924Z,79.81
2019-05-20T22:27:24.139Z,79.78
2019-05-20T22:30:28.259Z,79.79
2019-05-20T22:33:40.880Z,79.83
2019-05-20T22:36:38.226Z,79.79
2019-05-20T22:39:42.780Z,79.69
2019-05-20T22:42:47.393Z,79.73
2019-05-20T22:45:51.796Z,79.73
2019-05-20T22:48:56.249Z,79.66
2019-05-20T22:52:00.265Z,79.92
2019-05-20T22:55:04.785Z,80.06
2019-05-20T22:58:08.960Z,80.70
2019-05-20T23:01:13.202Z,80.88
2019-05-20T23:04:17.625Z,81.24
2019-05-20T23:07:21.829Z,81.96
2019-05-20T23:10:25.753Z,81.98
2019-05-20T23:13:30.349Z,82.04
2019-05-20T23:16:34.365Z,82.16
2019-05-20T23:19:39.363Z,82.37
2019-05-20T23:22:44.006Z,82.31
2019-05-20T23:25:48.365Z,82.42
2019-05-20T23:28:52.487Z,82.39
2019-05-20T23:31:56.750Z,82.01
2019-05-20T23:35:01.451Z,82.07
2019-05-20T23:38:05.650Z,82.43
2019-05-20T23:41:09.597Z,82.36
2019-05-20T23:44:13.937Z,82.44
2019-05-20T23:47:18.084Z,82.34
2019-05-20T23:50:22.340Z,82.16
2019-05-20T23:53:26.817Z,82.27
2019-05-20T23:56:31.476Z,82.33
2019-05-20T23:59:35.374Z,82.14
